Time;durP1;ratioP1;P1;durP2;ratioP2;P2;SDS_P1;SDS_P2;PMS_P1;PMS_P2;Temp;Humidity;BMP_temperature;BMP_pressure;BME280_temperature;BME280_humidity;BME280_pressure;Samples;Min_cycle;Max_cycle;Signal;HPM_P1;HPM_P2
2022/01/12 00:00:43;;;;;;;12.75;7.60;;;21.80;62.80;;;;;;7764435;28;20689;-56
2022/01/12 00:04:29;;;;;;;10.82;7.35;;;21.70;62.90;;;;;;7747460;28;20238;-57
2022/01/12 00:08:15;;;;;;;12.75;7.97;;;21.70;63.00;;;;;;7746570;28;20222;-58
2022/01/12 00:12:01;;;;;;;10.43;7.57;;;21.60;62.90;;;;;;7747162;28;20243;-58
2022/01/12 00:15:46;;;;;;;11.77;7.60;;;21.60;62.70;;;;;;7747235;28;20188;-58
2022/01/12 00:19:32;;;;;;;10.20;7.00;;;21.60;63.00;;;;;;7746469;28;20207;-59
2022/01/12 00:23:18;;;;;;;10.10;6.85;;;21.60;63.00;;;;;;7747072;28;20204;-59
2022/01/12 00:35:25;;;;;;;10.88;7.00;;;21.40;62.80;;;;;;7727548;28;20238;-56
2022/01/12 00:39:10;;;;;;;10.27;7.18;;;21.50;62.70;;;;;;7746093;28;20196;-56
2022/01/12 00:42:56;;;;;;;10.18;7.13;;;21.40;62.60;;;;;;7746698;28;20176;-57
2022/01/12 00:46:42;;;;;;;9.95;6.63;;;21.40;62.80;;;;;;7746596;28;20239;-52
2022/01/12 00:50:27;;;;;;;9.00;6.65;;;21.40;62.60;;;;;;7745729;28;20199;-55
2022/01/12 00:54:13;;;;;;;10.65;6.70;;;21.40;62.80;;;;;;7746456;28;20187;-58
2022/01/12 00:57:59;;;;;;;9.32;6.68;;;21.30;62.70;;;;;;7745795;28;20254;-57
2022/01/12 01:01:45;;;;;;;9.20;6.32;;;21.30;62.70;;;;;;7746364;28;20199;-58
2022/01/12 01:05:32;;;;;;;12.93;7.07;;;21.20;62.60;;;;;;7746350;28;20234;-56
2022/01/12 01:09:18;;;;;;;9.60;6.60;;;21.30;62.90;;;;;;7745286;28;20205;-55
2022/01/12 01:13:04;;;;;;;10.13;6.38;;;21.30;63.10;;;;;;7745818;28;20179;-57
2022/01/12 01:17:17;;;;;;;8.25;6.50;;;21.20;62.70;;;;;;7745995;28;20184;-56
2022/01/12 01:29:07;;;;;;;11.02;6.43;;;21.10;62.80;;;;;;7745280;28;20196;-54
2022/01/12 01:32:53;;;;;;;8.52;5.75;;;21.10;62.80;;;;;;7745902;28;20188;-56
2022/01/12 01:36:42;;;;;;;9.00;5.68;;;21.10;62.90;;;;;;7745812;28;20870;-55
2022/01/12 01:40:29;;;;;;;9.95;6.07;;;21.10;63.90;;;;;;7747261;28;20199;-57
2022/01/12 01:56:12;;;;;;;8.45;5.47;;;21.10;63.10;;;;;;7751368;28;20179;-55
2022/01/12 01:59:59;;;;;;;10.48;5.85;;;21.10;63.10;;;;;;7750458;28;20199;-58
2022/01/12 02:03:45;;;;;;;7.82;5.40;;;21.10;63.20;;;;;;7750862;28;20718;-57
2022/01/12 02:07:32;;;;;;;7.88;5.40;;;21.10;63.10;;;;;;7750355;28;20204;-58
2022/01/12 02:11:28;;;;;;;8.57;5.53;;;21.10;63.20;;;;;;7750524;28;20212;-57
2022/01/12 02:15:25;;;;;;;8.00;5.70;;;21.10;63.30;;;;;;7750808;28;20172;-56
2022/01/12 02:19:29;;;;;;;8.10;5.40;;;21.10;63.10;;;;;;7749685;28;20572;-58
2022/01/12 02:50:39;;;;;;;6.97;5.22;;;21.10;63.10;;;;;;7750010;28;20267;-55
2022/01/12 02:55:41;;;;;;;7.97;5.35;;;21.10;63.10;;;;;;7749667;28;20184;-56
2022/01/12 02:59:27;;;;;;;6.60;5.15;;;21.10;63.30;;;;;;7748865;28;20266;-55
2022/01/12 03:03:20;;;;;;;7.70;5.38;;;21.10;63.30;;;;;;7749540;28;20704;-55
2022/01/12 03:07:15;;;;;;;7.85;4.95;;;21.10;63.30;;;;;;7749459;28;20212;-54
2022/01/12 03:11:00;;;;;;;8.38;5.45;;;21.10;63.60;;;;;;7748557;28;20306;-57
2022/01/12 03:14:46;;;;;;;7.63;5.13;;;21.00;63.50;;;;;;7749145;28;20188;-58
2022/01/12 03:18:31;;;;;;;6.75;4.82;;;21.10;63.60;;;;;;7748296;28;20188;-57
2022/01/12 03:22:17;;;;;;;7.70;5.15;;;21.00;63.60;;;;;;7748893;28;20531;-56
2022/01/12 03:26:04;;;;;;;6.07;5.03;;;21.00;63.70;;;;;;7748693;28;20199;-59
2022/01/12 03:29:54;;;;;;;6.13;4.60;;;21.00;63.80;;;;;;7747938;28;20192;-57
2022/01/12 03:38:19;;;;;;;8.00;5.05;;;21.00;63.80;;;;;;7748006;28;20654;-58
2022/01/12 03:41:49;;;;;;;7.85;4.97;;;21.00;63.80;;;;;;7748132;28;20210;-59
2022/01/12 03:45:35;;;;;;;6.15;4.75;;;21.00;63.80;;;;;;7748303;28;20180;-58
2022/01/12 03:49:21;;;;;;;7.15;4.75;;;20.90;63.80;;;;;;7747310;28;20196;-58
2022/01/12 03:53:07;;;;;;;7.57;5.25;;;20.90;63.80;;;;;;7747894;28;20590;-57
2022/01/12 03:56:52;;;;;;;9.07;5.22;;;20.90;63.80;;;;;;7747788;28;20245;-57
2022/01/12 04:00:38;;;;;;;6.15;4.60;;;20.90;63.90;;;;;;7746957;28;20208;-59
2022/01/12 04:04:31;;;;;;;6.88;4.90;;;20.90;64.00;;;;;;7747400;28;20180;-58
2022/01/12 04:08:21;;;;;;;7.55;4.93;;;20.90;63.80;;;;;;7746998;28;20222;-58
2022/01/12 04:12:07;;;;;;;7.82;5.22;;;20.90;64.80;;;;;;7747150;28;20203;-58
2022/01/12 04:15:55;;;;;;;7.28;5.22;;;20.90;64.00;;;;;;7747191;28;20195;-58
2022/01/12 04:19:41;;;;;;;7.45;5.43;;;20.80;63.90;;;;;;7746359;28;20689;-58
2022/01/12 04:23:27;;;;;;;7.07;5.15;;;20.80;64.00;;;;;;7747498;28;20857;-59
2022/01/12 04:27:12;;;;;;;7.47;5.20;;;20.90;64.10;;;;;;7747018;28;20273;-56
2022/01/12 04:30:58;;;;;;;7.28;4.93;;;20.80;64.10;;;;;;7745961;28;20693;-56
2022/01/12 04:34:43;;;;;;;7.97;4.90;;;20.90;64.10;;;;;;7746754;28;20668;-56
2022/01/12 04:38:33;;;;;;;7.38;5.60;;;20.80;64.10;;;;;;7745964;28;20176;-55
2022/01/12 04:42:19;;;;;;;9.23;5.25;;;20.80;64.10;;;;;;7746688;28;20187;-56
2022/01/12 04:49:49;;;;;;;8.65;5.35;;;20.80;64.00;;;;;;7746067;28;20219;-54
2022/01/12 04:53:35;;;;;;;7.97;5.28;;;20.80;64.00;;;;;;7746936;28;20204;-55
2022/01/12 04:57:21;;;;;;;6.82;4.82;;;20.80;64.00;;;;;;7746759;28;20216;-58
2022/01/12 05:01:13;;;;;;;6.82;5.22;;;20.80;64.10;;;;;;7745985;28;20748;-57
2022/01/12 05:09:15;;;;;;;8.07;5.35;;;20.90;64.10;;;;;;7745433;28;20223;-54
2022/01/12 05:13:01;;;;;;;9.05;6.05;;;20.80;64.10;;;;;;7746633;28;20633;-56
2022/01/12 05:16:46;;;;;;;7.03;5.10;;;20.80;64.10;;;;;;7754339;28;20171;-55
2022/01/12 05:20:32;;;;;;;8.88;5.47;;;20.80;64.10;;;;;;7755302;28;20692;-56
2022/01/12 05:24:17;;;;;;;8.70;5.85;;;20.80;64.10;;;;;;7755972;28;20211;-55
2022/01/12 05:28:03;;;;;;;8.82;5.85;;;20.80;64.10;;;;;;7755256;28;20211;-55
2022/01/12 05:31:49;;;;;;;7.85;5.95;;;20.80;64.10;;;;;;7754534;28;20205;-58
2022/01/12 05:35:34;;;;;;;8.00;5.78;;;20.80;64.20;;;;;;7779831;28;20201;-56
2022/01/12 05:39:20;;;;;;;9.55;5.20;;;20.90;64.70;;;;;;7784530;28;20893;-57
2022/01/12 05:43:06;;;;;;;11.95;6.22;;;20.90;64.00;;;;;;7784683;28;20579;-57
2022/01/12 05:46:53;;;;;;;14.02;6.03;;;20.80;63.70;;;;;;7785909;28;20201;-56
2022/01/12 05:50:41;;;;;;;12.18;6.07;;;20.90;63.80;;;;;;7782680;28;20206;-57
2022/01/12 05:54:26;;;;;;;17.70;6.20;;;20.90;64.20;;;;;;7783393;28;20561;-56
2022/01/12 05:58:12;;;;;;;12.55;5.88;;;20.90;64.10;;;;;;7784586;28;20210;-57
2022/01/12 06:01:57;;;;;;;9.45;6.03;;;21.00;64.40;;;;;;7785066;28;20314;-57
2022/01/12 06:05:43;;;;;;;18.52;6.18;;;20.90;64.20;;;;;;7784956;28;20194;-54
2022/01/12 06:09:28;;;;;;;10.88;6.00;;;21.00;64.40;;;;;;7784333;28;20230;-56
2022/01/12 06:13:14;;;;;;;11.07;6.55;;;21.00;64.40;;;;;;7784383;28;20191;-53
2022/01/12 06:16:59;;;;;;;14.98;6.63;;;21.00;64.10;;;;;;7785192;28;20799;-55
2022/01/12 06:20:45;;;;;;;29.73;6.80;;;21.00;64.10;;;;;;7784538;28;20215;-57
2022/01/12 06:24:31;;;;;;;32.25;6.72;;;21.00;64.60;;;;;;7784820;28;20186;-58
2022/01/12 06:28:24;;;;;;;27.77;6.53;;;21.00;64.40;;;;;;7780746;28;20306;-58
2022/01/12 06:32:09;;;;;;;15.10;6.63;;;21.10;64.40;;;;;;7780380;28;20274;-56
2022/01/12 06:35:55;;;;;;;18.35;6.30;;;21.00;64.10;;;;;;7779709;28;20183;-57
2022/01/12 06:39:40;;;;;;;13.82;6.93;;;21.00;65.00;;;;;;7779401;28;20199;-57
2022/01/12 06:43:28;;;;;;;18.85;6.70;;;21.10;64.20;;;;;;7778932;28;20219;-54
2022/01/12 06:47:14;;;;;;;25.42;6.70;;;21.00;64.10;;;;;;7779420;28;20644;-59
2022/01/12 06:51:00;;;;;;;22.90;6.53;;;21.10;63.70;;;;;;7778837;28;20233;-55
2022/01/12 06:54:45;;;;;;;29.98;6.75;;;21.00;63.80;;;;;;7779127;28;20266;-57
2022/01/12 06:58:31;;;;;;;41.05;6.85;;;21.10;64.00;;;;;;7778876;28;20186;-54
2022/01/12 07:02:16;;;;;;;50.75;7.65;;;21.10;64.20;;;;;;7778875;28;20323;-57
2022/01/12 07:06:02;;;;;;;109.30;10.15;;;21.10;64.40;;;;;;7778783;28;20211;-56
2022/01/12 07:09:48;;;;;;;356.33;22.17;;;21.10;64.00;;;;;;7778299;28;20215;-57
2022/01/12 07:13:33;;;;;;;178.60;14.80;;;21.10;63.40;;;;;;7778270;28;20184;-57
2022/01/12 07:17:19;;;;;;;75.80;10.60;;;21.10;64.00;;;;;;7778541;28;20203;-56
2022/01/12 07:21:05;;;;;;;100.10;11.57;;;21.00;59.80;;;;;;7778010;28;20218;-58
2022/01/12 07:24:50;;;;;;;83.40;9.50;;;21.00;62.60;;;;;;7778416;28;20183;-58
2022/01/12 07:28:35;;;;;;;56.35;10.00;;;21.00;63.30;;;;;;7777852;28;20218;-55
2022/01/12 07:32:21;;;;;;;46.65;8.93;;;21.00;63.70;;;;;;7778248;28;20198;-54
2022/01/12 07:36:07;;;;;;;51.50;10.15;;;21.00;63.70;;;;;;7778145;28;20251;-57
2022/01/12 07:39:52;;;;;;;48.78;8.65;;;21.10;64.00;;;;;;7777569;28;20581;-56
2022/01/12 07:43:38;;;;;;;50.00;8.25;;;21.00;64.00;;;;;;7777926;28;20633;-57
2022/01/12 07:47:23;;;;;;;42.20;7.97;;;21.00;63.90;;;;;;7777708;28;20676;-58
2022/01/12 07:51:09;;;;;;;32.65;7.85;;;21.00;64.10;;;;;;7775429;28;20195;-57
2022/01/12 07:54:54;;;;;;;42.58;9.65;;;21.00;64.70;;;;;;7777710;28;20171;-56
2022/01/12 07:58:40;;;;;;;38.22;9.32;;;21.00;64.50;;;;;;7777746;28;20179;-56
2022/01/12 08:02:25;;;;;;;40.38;8.65;;;21.00;64.50;;;;;;7773798;28;20541;-58
2022/01/12 08:06:11;;;;;;;42.00;8.13;;;21.00;64.40;;;;;;7746817;28;20295;-55
2022/01/12 08:09:56;;;;;;;35.67;8.50;;;21.00;64.40;;;;;;7746318;28;20220;-55
2022/01/12 08:13:45;;;;;;;26.73;8.20;;;21.00;64.60;;;;;;7760821;28;20234;-56
2022/01/12 08:17:30;;;;;;;32.58;7.90;;;21.00;64.90;;;;;;7767946;28;20194;-57
2022/01/12 08:21:16;;;;;;;24.23;7.85;;;21.10;64.60;;;;;;7776694;28;20294;-54
2022/01/12 08:25:02;;;;;;;25.63;7.97;;;21.10;64.40;;;;;;7776375;28;20179;-53
2022/01/12 08:28:48;;;;;;;25.42;7.78;;;21.10;64.50;;;;;;7776380;28;20245;-58
2022/01/12 08:32:33;;;;;;;21.95;7.45;;;21.10;64.50;;;;;;7776028;28;20645;-56
2022/01/12 08:36:19;;;;;;;41.10;8.13;;;21.10;64.50;;;;;;7776771;28;20723;-55
2022/01/12 08:40:05;;;;;;;30.73;7.65;;;21.10;65.10;;;;;;7776018;28;20200;-58
2022/01/12 08:43:50;;;;;;;27.33;8.10;;;21.10;65.00;;;;;;7775891;28;20179;-56
2022/01/12 08:47:36;;;;;;;23.15;8.13;;;21.10;65.10;;;;;;7775791;28;20301;-54
2022/01/12 08:51:21;;;;;;;30.40;8.73;;;21.10;65.90;;;;;;7775299;28;20686;-53
2022/01/12 08:55:07;;;;;;;23.70;9.13;;;21.10;65.00;;;;;;7775558;28;20175;-55
2022/01/12 08:58:53;;;;;;;23.23;8.50;;;21.10;64.90;;;;;;7775795;28;20211;-55
2022/01/12 09:02:39;;;;;;;24.38;8.40;;;21.10;64.80;;;;;;7775563;28;20188;-55
2022/01/12 09:06:25;;;;;;;16.83;8.18;;;21.10;64.90;;;;;;7775716;28;20237;-56
2022/01/12 09:10:11;;;;;;;21.80;8.95;;;21.10;64.80;;;;;;7775291;28;20215;-56
2022/01/12 09:13:57;;;;;;;20.02;8.88;;;21.10;65.00;;;;;;7775527;28;20183;-56
2022/01/12 09:17:43;;;;;;;25.85;8.82;;;21.10;64.90;;;;;;7760347;28;20210;-55
2022/01/12 09:21:29;;;;;;;18.10;8.73;;;21.20;64.90;;;;;;7775613;28;20353;-55
2022/01/12 09:25:15;;;;;;;16.63;9.05;;;21.10;64.80;;;;;;7775278;28;20208;-52
2022/01/12 09:29:02;;;;;;;16.98;8.95;;;21.20;65.10;;;;;;7774505;28;20214;-51
2022/01/12 09:32:47;;;;;;;20.88;9.25;;;21.20;65.10;;;;;;7774787;28;20641;-56
2022/01/12 09:36:33;;;;;;;43.13;8.43;;;21.20;64.80;;;;;;7775332;28;20274;-54
2022/01/12 09:40:19;;;;;;;18.67;8.02;;;21.20;65.50;;;;;;7774736;28;20215;-55
2022/01/12 09:44:05;;;;;;;25.92;7.93;;;21.20;65.10;;;;;;7775348;28;20267;-55
2022/01/12 09:47:51;;;;;;;24.70;7.43;;;21.20;65.20;;;;;;7774761;28;20693;-54
2022/01/12 09:51:37;;;;;;;25.35;8.15;;;21.20;65.60;;;;;;7772554;28;20604;-54
2022/01/12 09:55:23;;;;;;;23.27;7.68;;;21.20;65.50;;;;;;7774544;28;20199;-56
2022/01/12 09:59:08;;;;;;;21.67;7.93;;;21.20;65.40;;;;;;7774446;28;20273;-55
2022/01/12 10:02:55;;;;;;;24.60;7.90;;;21.20;65.40;;;;;;7779238;28;20223;-54
2022/01/12 10:06:47;;;;;;;26.20;8.05;;;21.20;64.90;;;;;;7780949;28;20270;-59
2022/01/12 10:10:33;;;;;;;23.05;7.20;;;21.20;65.10;;;;;;7779996;28;20211;-57
2022/01/12 10:14:18;;;;;;;19.58;7.53;;;21.20;65.10;;;;;;7780238;28;20179;-59
2022/01/12 10:18:04;;;;;;;34.03;7.93;;;21.30;64.80;;;;;;7780523;28;20245;-56
2022/01/12 10:21:50;;;;;;;15.00;7.53;;;21.20;64.80;;;;;;7780150;28;20203;-56
2022/01/12 10:25:36;;;;;;;18.42;6.80;;;21.20;64.30;;;;;;7780108;28;20180;-55
2022/01/12 10:29:27;;;;;;;16.13;7.00;;;21.30;63.70;;;;;;7779790;28;20199;-57
2022/01/12 10:33:12;;;;;;;15.68;7.00;;;21.30;63.40;;;;;;7779762;28;20262;-59
2022/01/12 10:36:58;;;;;;;17.88;6.32;;;21.40;63.50;;;;;;7779918;28;20191;-58
2022/01/12 10:40:52;;;;;;;22.33;6.13;;;21.50;64.70;;;;;;7781646;28;20286;-58
2022/01/12 10:44:41;;;;;;;22.88;6.97;;;21.60;66.40;;;;;;7779648;28;20329;-57
2022/01/12 10:48:40;;;;;;;16.95;6.47;;;21.80;67.10;;;;;;7784927;28;20268;-54
2022/01/12 10:52:34;;;;;;;18.55;5.97;;;21.90;67.60;;;;;;7809921;28;20171;-55
2022/01/12 10:56:24;;;;;;;17.15;5.78;;;22.10;66.80;;;;;;7809994;28;20179;-54
2022/01/12 11:00:19;;;;;;;21.65;6.05;;;22.10;67.10;;;;;;7799896;28;20207;-54
2022/01/12 11:04:05;;;;;;;30.63;7.75;;;22.30;67.50;;;;;;7778970;28;20187;-56
2022/01/12 11:07:52;;;;;;;18.42;6.43;;;22.20;61.70;;;;;;7778668;28;20692;-53
2022/01/12 11:11:38;;;;;;;38.58;6.72;;;22.00;61.20;;;;;;7778010;28;20669;-56
2022/01/12 11:15:24;;;;;;;23.08;4.90;;;22.00;64.60;;;;;;7778066;28;20692;-55
2022/01/12 11:19:10;;;;;;;21.63;5.72;;;22.10;65.90;;;;;;7778365;28;20242;-55
2022/01/12 11:23:08;;;;;;;16.42;4.68;;;22.20;65.30;;;;;;7778355;28;20179;-55
2022/01/12 11:26:54;;;;;;;21.35;5.20;;;22.20;64.60;;;;;;7778330;28;20211;-55
2022/01/12 11:30:59;;;;;;;24.95;4.90;;;22.30;65.40;;;;;;7777908;28;20195;-54
2022/01/12 11:34:44;;;;;;;31.98;5.03;;;22.40;66.30;;;;;;7777929;28;20186;-57
2022/01/12 11:38:34;;;;;;;12.77;4.53;;;22.40;66.40;;;;;;7777660;28;20230;-57
2022/01/12 11:42:19;;;;;;;26.02;5.20;;;22.40;66.20;;;;;;7777940;28;20279;-56
2022/01/12 11:46:14;;;;;;;24.17;5.15;;;22.40;66.20;;;;;;7777740;28;20199;-55
2022/01/12 11:50:10;;;;;;;21.55;5.07;;;22.40;66.20;;;;;;7777266;28;20206;-56
2022/01/12 11:53:56;;;;;;;12.43;5.13;;;22.50;65.90;;;;;;7777590;28;20190;-55
2022/01/12 11:57:48;;;;;;;11.75;4.30;;;22.40;66.00;;;;;;7777266;28;20647;-56
2022/01/12 12:02:09;;;;;;;10.90;4.18;;;22.40;66.10;;;;;;7776304;28;20250;-56
2022/01/12 12:05:55;;;;;;;18.58;4.60;;;22.40;66.50;;;;;;7776191;28;20344;-58
2022/01/12 12:09:52;;;;;;;14.75;6.95;;;22.50;67.10;;;;;;7777011;28;20278;-57
2022/01/12 12:13:41;;;;;;;11.27;6.22;;;22.40;60.60;;;;;;7777062;28;20171;-55
2022/01/12 12:17:31;;;;;;;16.27;6.07;;;22.00;59.50;;;;;;7776837;28;20559;-58
2022/01/12 12:21:17;;;;;;;13.23;5.53;;;21.90;61.30;;;;;;7776970;28;20191;-54
2022/01/12 12:25:12;;;;;;;11.32;5.30;;;21.90;63.90;;;;;;7776592;28;20246;-54
2022/01/12 12:28:58;;;;;;;13.38;4.88;;;22.00;65.10;;;;;;7776480;28;20218;-54
2022/01/12 12:32:46;;;;;;;9.15;4.80;;;22.20;65.50;;;;;;7776519;28;20187;-55
2022/01/12 12:36:32;;;;;;;14.05;4.90;;;22.30;65.80;;;;;;7775774;28;20261;-55
2022/01/12 12:40:20;;;;;;;10.63;4.88;;;22.40;66.10;;;;;;7775863;28;20540;-57
2022/01/12 12:44:06;;;;;;;7.63;4.20;;;22.50;66.40;;;;;;7776257;28;20179;-56
2022/01/12 12:47:52;;;;;;;14.27;4.38;;;22.60;66.40;;;;;;7787676;28;20215;-56
2022/01/12 12:51:38;;;;;;;8.68;4.30;;;22.70;66.30;;;;;;7775850;28;20199;-57
2022/01/12 12:55:24;;;;;;;9.02;4.30;;;22.70;66.10;;;;;;7792730;28;20167;-55
2022/01/12 12:59:09;;;;;;;15.63;4.22;;;22.80;66.50;;;;;;7806405;28;20201;-56
2022/01/12 13:02:58;;;;;;;11.13;3.97;;;22.80;66.60;;;;;;7786984;28;20183;-58
2022/01/12 13:06:43;;;;;;;18.33;4.30;;;22.90;66.60;;;;;;7775751;28;20703;-56
2022/01/12 13:10:33;;;;;;;15.93;4.60;;;23.00;66.80;;;;;;7775323;28;20551;-56
2022/01/12 13:14:19;;;;;;;14.82;4.75;;;23.10;66.80;;;;;;7775947;28;20267;-56
2022/01/12 13:18:07;;;;;;;17.48;4.53;;;23.20;67.00;;;;;;7775260;28;20206;-54
2022/01/12 13:21:52;;;;;;;21.77;4.65;;;23.20;67.00;;;;;;7775800;28;20203;-58
2022/01/12 13:25:38;;;;;;;16.60;4.72;;;23.20;67.00;;;;;;7775363;28;20263;-54
2022/01/12 13:29:24;;;;;;;11.35;4.75;;;23.20;67.10;;;;;;7775102;28;20257;-52
2022/01/12 13:33:09;;;;;;;15.82;4.55;;;23.30;67.20;;;;;;7761804;28;20183;-53
2022/01/12 13:36:55;;;;;;;12.10;4.78;;;23.30;67.20;;;;;;7778583;28;20193;-55
2022/01/12 13:40:44;;;;;;;14.10;4.35;;;23.30;67.30;;;;;;7781242;28;20261;-53
2022/01/12 13:44:29;;;;;;;10.82;4.18;;;23.30;67.40;;;;;;7781297;28;20185;-56
2022/01/12 13:48:21;;;;;;;14.25;4.57;;;23.30;67.50;;;;;;7781264;28;20821;-55
2022/01/12 13:52:08;;;;;;;12.43;4.20;;;23.20;67.40;;;;;;7781603;28;20199;-54
2022/01/12 13:55:55;;;;;;;11.15;4.45;;;23.30;67.50;;;;;;7781215;28;20691;-58
2022/01/12 13:59:51;;;;;;;18.33;4.90;;;23.30;67.50;;;;;;7780709;28;20203;-57
2022/01/12 14:03:53;;;;;;;18.85;4.30;;;23.20;66.40;;;;;;7780640;28;20217;-56
2022/01/12 14:07:41;;;;;;;9.55;4.18;;;23.10;67.20;;;;;;7780366;28;20207;-57
2022/01/12 14:11:35;;;;;;;14.68;4.63;;;23.00;67.20;;;;;;7780657;28;20219;-57
2022/01/12 14:15:25;;;;;;;18.15;4.35;;;23.00;67.40;;;;;;7780513;28;20228;-58
2022/01/12 14:19:12;;;;;;;17.10;4.50;;;22.90;67.50;;;;;;7779893;28;20211;-58
2022/01/12 14:22:59;;;;;;;13.38;4.75;;;22.90;66.60;;;;;;7780904;28;20237;-58
2022/01/12 14:26:45;;;;;;;21.80;5.13;;;22.90;67.70;;;;;;7780055;28;20195;-58
2022/01/12 14:30:31;;;;;;;15.45;5.60;;;22.70;65.20;;;;;;7779934;28;20191;-56
2022/01/12 14:34:16;;;;;;;19.30;4.80;;;22.70;66.40;;;;;;7779628;28;20259;-58
2022/01/12 14:38:02;;;;;;;20.10;5.55;;;22.60;67.00;;;;;;7779833;28;20657;-58
2022/01/12 14:41:48;;;;;;;23.90;4.55;;;22.60;66.60;;;;;;7779816;28;20254;-58
2022/01/12 14:45:38;;;;;;;23.33;5.10;;;22.50;67.30;;;;;;7779281;28;20831;-58
2022/01/12 14:49:23;;;;;;;16.90;4.75;;;22.50;67.60;;;;;;7768585;28;20667;-56
2022/01/12 14:53:11;;;;;;;16.88;4.80;;;22.50;67.70;;;;;;7780057;28;20257;-55
2022/01/12 14:56:56;;;;;;;18.48;4.90;;;22.50;67.70;;;;;;7780063;28;20190;-57
2022/01/12 15:00:42;;;;;;;13.25;4.68;;;22.50;67.50;;;;;;7779725;28;20290;-56
2022/01/12 15:04:28;;;;;;;10.27;4.38;;;22.40;67.40;;;;;;7779615;28;20258;-56
2022/01/12 15:08:15;;;;;;;10.15;3.75;;;22.40;67.40;;;;;;7779124;28;20720;-57
2022/01/12 15:12:01;;;;;;;19.02;5.00;;;22.40;67.50;;;;;;7776524;28;20688;-58
2022/01/12 15:15:49;;;;;;;10.40;4.68;;;22.40;67.70;;;;;;7778685;28;20598;-56
2022/01/12 15:19:35;;;;;;;9.60;3.67;;;22.40;67.80;;;;;;7775653;28;20195;-58
2022/01/12 15:23:21;;;;;;;15.25;4.20;;;22.40;67.70;;;;;;7778792;28;20700;-58
2022/01/12 15:27:06;;;;;;;16.75;4.80;;;22.40;67.70;;;;;;7778413;28;20668;-56
2022/01/12 15:30:52;;;;;;;14.70;4.30;;;22.50;67.80;;;;;;7778576;28;20752;-57
2022/01/12 15:34:38;;;;;;;10.85;4.10;;;22.50;67.80;;;;;;7778684;28;20537;-57
2022/01/12 15:38:23;;;;;;;17.13;4.60;;;22.60;67.80;;;;;;7778765;28;20720;-58
2022/01/12 15:42:09;;;;;;;24.38;4.72;;;22.60;66.70;;;;;;7778710;28;20282;-58
2022/01/12 15:45:54;;;;;;;10.90;3.40;;;22.60;66.40;;;;;;7776244;28;20266;-57
2022/01/12 15:49:41;;;;;;;11.32;4.38;;;22.70;68.30;;;;;;7778202;28;20660;-58
2022/01/12 15:53:27;;;;;;;11.35;4.25;;;22.70;66.50;;;;;;7778356;28;20183;-58
2022/01/12 15:57:13;;;;;;;11.73;3.88;;;22.80;66.80;;;;;;7778237;28;20191;-56
2022/01/12 16:00:59;;;;;;;11.35;4.40;;;22.90;66.80;;;;;;7777420;28;20665;-57
2022/01/12 16:04:44;;;;;;;9.98;3.97;;;23.00;66.90;;;;;;7778264;28;20555;-58
2022/01/12 16:08:30;;;;;;;14.32;4.15;;;23.10;67.00;;;;;;7777467;28;20217;-58
2022/01/12 16:12:17;;;;;;;15.07;5.18;;;23.20;67.00;;;;;;7777472;28;20219;-59
2022/01/12 16:16:03;;;;;;;23.65;5.53;;;23.20;62.70;;;;;;7777932;28;20187;-57
2022/01/12 16:19:50;;;;;;;16.35;4.35;;;23.00;64.70;;;;;;7777703;28;20195;-56
2022/01/12 16:23:35;;;;;;;11.05;3.95;;;23.10;65.20;;;;;;7777685;28;20540;-58
2022/01/12 16:27:21;;;;;;;13.40;4.18;;;23.30;65.50;;;;;;7777277;28;20211;-58
2022/01/12 16:31:19;;;;;;;12.52;4.47;;;23.30;65.70;;;;;;7777014;28;20195;-58
2022/01/12 16:35:05;;;;;;;13.68;4.03;;;23.50;65.60;;;;;;7777137;28;20175;-58
2022/01/12 16:38:53;;;;;;;15.15;4.63;;;23.60;65.40;;;;;;7776873;28;20194;-58
2022/01/12 16:42:39;;;;;;;10.95;3.40;;;23.70;65.20;;;;;;7777362;28;20262;-58
2022/01/12 16:46:24;;;;;;;18.00;4.93;;;23.90;65.20;;;;;;7776688;28;20214;-60
2022/01/12 16:50:10;;;;;;;23.88;3.88;;;24.00;63.90;;;;;;7776677;28;20688;-56
2022/01/12 16:53:56;;;;;;;17.25;3.92;;;24.10;64.90;;;;;;7776442;28;20588;-57
2022/01/12 16:57:41;;;;;;;12.98;4.90;;;24.20;65.00;;;;;;7776622;28;20183;-58
2022/01/12 17:01:27;;;;;;;13.85;4.20;;;24.40;64.90;;;;;;7776733;28;20279;-57
2022/01/12 17:05:12;;;;;;;17.33;3.40;;;24.50;64.70;;;;;;7776606;28;20287;-57
2022/01/12 17:08:58;;;;;;;8.13;3.50;;;24.70;64.70;;;;;;7775952;28;20294;-57
2022/01/12 17:12:44;;;;;;;10.65;3.45;;;24.80;64.70;;;;;;7775452;28;20317;-56
2022/01/12 17:16:50;;;;;;;8.02;3.22;;;24.90;65.40;;;;;;7776816;28;20187;-57
2022/01/12 17:20:39;;;;;;;9.13;3.35;;;25.00;64.50;;;;;;7776091;28;20203;-58
2022/01/12 17:25:13;;;;;;;8.43;3.30;;;25.10;64.30;;;;;;7776608;28;20278;-57
2022/01/12 17:28:58;;;;;;;15.88;3.70;;;25.10;64.30;;;;;;7760360;28;20234;-56
2022/01/12 17:32:44;;;;;;;10.43;2.97;;;25.20;65.10;;;;;;7775539;28;20862;-56
2022/01/12 17:36:37;;;;;;;8.10;3.28;;;25.20;64.20;;;;;;7774951;28;20183;-57
2022/01/12 17:40:23;;;;;;;11.20;3.38;;;25.20;64.20;;;;;;7774324;28;20617;-56
2022/01/12 17:44:09;;;;;;;8.88;3.03;;;25.20;64.20;;;;;;7776221;28;20179;-57
2022/01/12 17:47:55;;;;;;;7.25;3.00;;;25.20;64.20;;;;;;7775872;28;20687;-58
2022/01/12 17:51:41;;;;;;;10.07;2.85;;;25.20;64.20;;;;;;7775796;28;20596;-56
2022/01/12 17:55:27;;;;;;;7.47;2.67;;;25.20;64.20;;;;;;7775833;28;20176;-57
2022/01/12 17:59:13;;;;;;;8.93;3.03;;;25.20;64.30;;;;;;7774933;28;20342;-55
2022/01/12 18:02:59;;;;;;;6.18;3.22;;;25.20;64.50;;;;;;7775514;28;20191;-57
2022/01/12 18:06:44;;;;;;;6.40;2.78;;;25.20;64.40;;;;;;7775514;28;20218;-58
2022/01/12 18:10:30;;;;;;;10.55;2.88;;;25.10;64.50;;;;;;7775080;28;20222;-57
2022/01/12 18:14:15;;;;;;;9.93;3.40;;;25.10;64.10;;;;;;7775470;28;20179;-58
2022/01/12 18:18:03;;;;;;;8.00;3.60;;;25.10;64.20;;;;;;7775323;28;20179;-57
2022/01/12 18:21:49;;;;;;;10.40;3.50;;;25.10;63.50;;;;;;7776683;28;20215;-57
2022/01/12 18:25:35;;;;;;;7.30;3.33;;;25.10;62.50;;;;;;7780987;28;20172;-57
2022/01/12 18:29:20;;;;;;;9.20;3.28;;;25.00;61.70;;;;;;7780134;28;20234;-59
2022/01/12 18:33:06;;;;;;;13.73;3.45;;;25.00;61.30;;;;;;7780890;28;20664;-58
2022/01/12 18:36:51;;;;;;;7.95;3.25;;;25.00;62.70;;;;;;7780303;28;20206;-59
2022/01/12 18:40:46;;;;;;;12.15;3.33;;;24.90;61.80;;;;;;7779990;28;20218;-59
2022/01/12 18:44:32;;;;;;;10.38;4.55;;;24.90;62.10;;;;;;7772766;28;20236;-58
2022/01/12 18:48:17;;;;;;;10.02;4.00;;;24.90;61.00;;;;;;7779394;28;20211;-58
2022/01/12 18:52:04;;;;;;;7.45;4.25;;;24.90;61.10;;;;;;7780101;28;20237;-58
2022/01/12 18:55:49;;;;;;;6.18;3.80;;;24.80;61.00;;;;;;7779985;28;20175;-58
2022/01/12 18:59:35;;;;;;;5.90;3.72;;;24.80;61.00;;;;;;7779903;28;20204;-58
2022/01/12 19:03:20;;;;;;;6.80;4.38;;;24.70;61.40;;;;;;7779935;28;20175;-56
2022/01/12 19:07:06;;;;;;;9.05;4.28;;;24.60;60.20;;;;;;7779438;28;20207;-57
2022/01/12 19:10:51;;;;;;;27.55;6.95;;;24.50;60.50;;;;;;7778437;28;20685;-58
2022/01/12 19:14:38;;;;;;;17.23;5.40;;;24.50;59.30;;;;;;7779001;28;20186;-57
2022/01/12 19:18:24;;;;;;;35.92;4.68;;;24.30;59.90;;;;;;7779250;28;20179;-57
2022/01/12 19:22:10;;;;;;;40.88;5.40;;;24.20;61.00;;;;;;7779436;28;20206;-57
2022/01/12 19:25:55;;;;;;;24.90;4.10;;;24.20;62.80;;;;;;7777089;28;20216;-57
2022/01/12 19:29:41;;;;;;;19.42;3.97;;;24.20;63.90;;;;;;7778058;28;20716;-58
2022/01/12 19:33:26;;;;;;;22.88;3.97;;;24.20;64.40;;;;;;7777486;28;20171;-57
2022/01/12 19:37:12;;;;;;;17.50;3.47;;;24.30;64.70;;;;;;7777672;28;20206;-57
2022/01/12 19:41:04;;;;;;;22.45;4.13;;;24.30;64.90;;;;;;7769624;28;20203;-57
2022/01/12 19:44:49;;;;;;;31.17;4.40;;;24.20;65.00;;;;;;7777687;28;20195;-58
2022/01/12 19:48:34;;;;;;;20.70;3.35;;;24.20;65.20;;;;;;7777042;28;20335;-56
2022/01/12 19:52:42;;;;;;;29.33;3.83;;;24.20;65.30;;;;;;7777647;28;20172;-56
2022/01/12 19:56:28;;;;;;;19.98;3.50;;;24.20;65.50;;;;;;7774026;28;20207;-57
2022/01/12 20:00:21;;;;;;;17.42;3.50;;;24.20;65.70;;;;;;7777081;28;20700;-57
2022/01/12 20:04:10;;;;;;;18.88;3.90;;;24.10;65.90;;;;;;7777064;28;20262;-58
2022/01/12 20:07:56;;;;;;;21.20;3.53;;;24.10;66.80;;;;;;7776595;28;20301;-60
2022/01/12 20:11:41;;;;;;;24.40;4.30;;;24.00;66.00;;;;;;7776634;28;20223;-56
2022/01/12 20:15:27;;;;;;;20.35;3.90;;;24.00;66.20;;;;;;7776632;28;20273;-58
2022/01/12 20:23:59;;;;;;;11.98;3.30;;;23.90;66.50;;;;;;7776727;28;20645;-58
2022/01/12 20:27:45;;;;;;;20.10;3.80;;;23.80;66.60;;;;;;7726511;28;20242;-58
2022/01/12 20:31:30;;;;;;;17.52;2.95;;;23.80;66.60;;;;;;7745861;28;20227;-56
2022/01/12 20:35:16;;;;;;;17.38;3.80;;;23.70;66.60;;;;;;7765908;28;20219;-58
2022/01/12 20:39:01;;;;;;;16.63;3.92;;;23.60;66.70;;;;;;7776289;28;20285;-58
2022/01/12 20:42:47;;;;;;;21.67;4.43;;;23.60;65.90;;;;;;7776746;28;20179;-57